createdAt,value
2022-10-22T00:00:46.060Z,12.85
2022-10-22T00:04:46.070Z,12.78
2022-10-22T00:08:45.937Z,12.57
2022-10-22T00:12:48.274Z,12.33
2022-10-22T00:16:47.786Z,12.33
2022-10-22T00:20:46.997Z,12.23
2022-10-22T00:24:46.511Z,12.09
2022-10-22T00:28:48.780Z,11.89
2022-10-22T00:32:48.337Z,11.58
2022-10-22T00:36:48.263Z,11.38
2022-10-22T00:40:48.290Z,11.44
2022-10-22T00:45:09.377Z,11.51
2022-10-22T00:49:09.206Z,11.43
2022-10-22T00:53:15.296Z,11.17
2022-10-22T00:57:14.945Z,10.99
2022-10-22T01:01:22.563Z,10.89
2022-10-22T01:05:23.061Z,10.58
2022-10-22T01:09:32.404Z,10.20
2022-10-22T01:13:40.934Z,10.13
2022-10-22T01:17:51.710Z,10.22
2022-10-22T01:21:59.131Z,10.46
2022-10-22T01:26:05.912Z,10.52
2022-10-22T01:30:09.575Z,10.61
2022-10-22T01:34:12.110Z,11.02
2022-10-22T01:38:15.695Z,11.47
2022-10-22T01:42:16.032Z,10.93
2022-10-22T01:46:20.279Z,10.75
2022-10-22T01:50:37.808Z,10.98
2022-10-22T01:54:44.606Z,11.46
2022-10-22T01:58:54.342Z,11.30
2022-10-22T02:03:04.308Z,11.20
2022-10-22T02:07:08.526Z,11.40
2022-10-22T02:11:08.866Z,11.61
2022-10-22T02:15:12.175Z,11.48
2022-10-22T02:19:21.702Z,11.45
2022-10-22T02:23:23.185Z,11.72
2022-10-22T02:27:28.842Z,11.58
2022-10-22T02:31:32.965Z,11.38
2022-10-22T02:35:35.242Z,10.94
2022-10-22T02:39:37.934Z,10.94
2022-10-22T02:43:43.360Z,10.93
2022-10-22T02:47:43.732Z,11.09
2022-10-22T02:51:45.622Z,11.03
2022-10-22T02:55:45.214Z,10.89
2022-10-22T02:59:44.458Z,10.78
2022-10-22T03:03:43.967Z,10.73
2022-10-22T03:07:45.302Z,10.96
2022-10-22T03:11:44.932Z,11.04
2022-10-22T03:15:44.232Z,11.01
2022-10-22T03:19:43.522Z,10.97
2022-10-22T03:23:45.819Z,11.37
2022-10-22T03:27:45.775Z,11.51
2022-10-22T03:31:45.550Z,11.40
2022-10-22T03:35:47.957Z,11.52
2022-10-22T03:39:49.974Z,11.50
2022-10-22T03:43:52.614Z,11.31
2022-10-22T03:47:52.599Z,11.33
2022-10-22T03:51:52.245Z,11.00
2022-10-22T03:55:53.962Z,10.67
2022-10-22T03:59:53.464Z,10.04
2022-10-22T04:03:53.151Z,10.08
2022-10-22T04:07:52.933Z,10.34
2022-10-22T04:11:54.630Z,10.04
2022-10-22T04:15:54.703Z,9.66
2022-10-22T04:19:54.360Z,9.02
2022-10-22T04:23:54.709Z,8.74
2022-10-22T04:27:56.271Z,8.35
2022-10-22T04:31:55.843Z,8.25
2022-10-22T04:35:54.811Z,8.13
2022-10-22T04:39:54.242Z,8.08
2022-10-22T04:43:56.686Z,8.37
2022-10-22T04:47:56.437Z,8.30
2022-10-22T04:51:55.978Z,8.51
2022-10-22T04:55:55.338Z,9.26
2022-10-22T04:59:57.161Z,9.46
2022-10-22T05:03:58.342Z,9.16
2022-10-22T05:07:57.932Z,9.50
2022-10-22T05:11:57.658Z,9.44
2022-10-22T05:16:03.363Z,9.37
2022-10-22T05:20:03.038Z,9.11
2022-10-22T05:24:03.729Z,8.53
2022-10-22T05:28:03.346Z,8.50
2022-10-22T05:32:05.372Z,8.98
2022-10-22T05:36:07.238Z,9.37
2022-10-22T05:40:19.275Z,9.80
2022-10-22T05:44:26.459Z,10.61
2022-10-22T05:48:28.375Z,11.38
2022-10-22T05:52:28.671Z,11.96
2022-10-22T05:56:31.773Z,12.41
2022-10-22T06:00:31.732Z,11.84
2022-10-22T06:04:33.642Z,11.94
2022-10-22T06:08:33.718Z,11.78
2022-10-22T06:12:33.454Z,11.21
2022-10-22T06:16:33.842Z,11.13
2022-10-22T06:20:36.026Z,11.24
2022-10-22T06:24:35.679Z,11.59
2022-10-22T06:28:37.722Z,12.05
2022-10-22T06:32:37.888Z,12.55
2022-10-22T06:40:43.442Z,13.38
2022-10-22T06:44:46.005Z,13.62
2022-10-22T06:48:52.795Z,13.53
2022-10-22T06:53:14.756Z,13.45
2022-10-22T06:57:26.914Z,13.24
2022-10-22T07:01:45.256Z,13.65
2022-10-22T07:06:03.036Z,13.77
2022-10-22T07:10:12.146Z,13.78
2022-10-22T07:15:04.198Z,14.03
2022-10-22T07:19:33.626Z,14.26
2022-10-22T07:23:34.029Z,14.28
2022-10-22T07:27:48.795Z,14.94
2022-10-22T07:31:50.187Z,14.85
2022-10-22T07:42:25.683Z,14.29
2022-10-22T08:45:05.406Z,14.81
2022-10-22T08:49:10.824Z,15.11
2022-10-22T08:53:18.420Z,15.41
2022-10-22T08:57:45.700Z,15.39
2022-10-22T09:01:53.448Z,15.64
2022-10-22T09:06:00.966Z,15.99
2022-10-22T09:10:02.882Z,16.20
2022-10-22T09:14:03.653Z,16.13
2022-10-22T09:18:19.642Z,16.02
2022-10-22T09:22:29.620Z,16.35
2022-10-22T09:26:33.621Z,16.40
2022-10-22T09:30:37.575Z,16.45
2022-10-22T09:34:41.218Z,16.38
2022-10-22T09:38:46.746Z,16.59
2022-10-22T09:42:50.058Z,16.97
2022-10-22T09:46:49.840Z,16.92
2022-10-22T09:51:10.407Z,17.03
2022-10-22T09:55:18.194Z,17.00
2022-10-22T09:59:19.922Z,17.03
2022-10-22T10:03:21.794Z,16.73
2022-10-22T10:07:25.530Z,16.46
2022-10-22T10:11:30.616Z,16.99
2022-10-22T10:15:36.246Z,17.34
2022-10-22T10:19:49.239Z,17.49
2022-10-22T10:23:59.810Z,17.68
2022-10-22T10:28:05.776Z,17.77
2022-10-22T10:32:24.314Z,17.74
2022-10-22T10:36:37.745Z,17.84
2022-10-22T10:40:52.362Z,17.89
2022-10-22T10:45:04.933Z,18.26
2022-10-22T10:49:11.901Z,18.46
2022-10-22T10:53:23.059Z,18.65
2022-10-22T10:57:41.076Z,18.73
2022-10-22T11:01:56.891Z,18.58
2022-10-22T11:06:00.607Z,18.58
2022-10-22T11:10:06.426Z,19.16
2022-10-22T11:14:15.422Z,19.31
2022-10-22T11:18:22.537Z,19.31
2022-10-22T11:22:27.992Z,19.38
2022-10-22T11:26:37.049Z,19.58
2022-10-22T11:30:40.213Z,19.63
2022-10-22T11:34:47.446Z,19.61
2022-10-22T11:38:46.646Z,19.97
2022-10-22T11:42:50.019Z,20.10
2022-10-22T11:46:58.255Z,20.35
2022-10-22T11:50:59.938Z,20.29
2022-10-22T11:55:03.474Z,20.27
2022-10-22T11:59:03.174Z,20.44
2022-10-22T12:03:18.708Z,20.27
2022-10-22T12:07:35.038Z,20.44
2022-10-22T12:11:39.697Z,20.76
2022-10-22T12:15:49.277Z,20.72
2022-10-22T12:19:53.088Z,20.85
2022-10-22T12:23:53.685Z,21.09
2022-10-22T12:27:57.087Z,21.11
2022-10-22T12:31:57.471Z,21.35
2022-10-22T12:36:03.783Z,21.37
2022-10-22T12:40:03.465Z,21.34
2022-10-22T12:44:04.168Z,21.28
2022-10-22T12:48:06.321Z,21.68
2022-10-22T12:52:14.920Z,21.55
2022-10-22T12:56:18.479Z,21.51
2022-10-22T13:00:26.972Z,21.59
2022-10-22T13:04:38.292Z,21.69
2022-10-22T13:08:41.440Z,21.76
2022-10-22T13:12:40.775Z,21.76
2022-10-22T13:16:50.757Z,21.85
2022-10-22T13:20:55.608Z,21.92
2022-10-22T13:24:59.405Z,21.98
2022-10-22T13:29:00.774Z,22.26
2022-10-22T13:33:02.371Z,22.26
2022-10-22T13:37:03.428Z,22.18
2022-10-22T13:41:05.338Z,21.89
2022-10-22T13:45:04.905Z,21.48
2022-10-22T13:49:04.455Z,21.58
2022-10-22T13:53:05.148Z,21.53
2022-10-22T13:57:10.314Z,21.42
2022-10-22T14:01:18.676Z,21.76
2022-10-22T14:05:19.354Z,21.94
2022-10-22T14:09:23.963Z,22.08
2022-10-22T14:13:26.274Z,22.12
2022-10-22T14:17:25.341Z,22.03
2022-10-22T14:21:25.100Z,22.15
2022-10-22T14:25:31.000Z,22.18
2022-10-22T14:29:32.566Z,22.36
2022-10-22T14:33:34.614Z,22.26
2022-10-22T14:37:34.204Z,22.26
2022-10-22T14:41:34.187Z,21.74
2022-10-22T14:45:35.841Z,21.46
2022-10-22T14:49:35.361Z,21.25
2022-10-22T14:53:35.090Z,20.92
2022-10-22T14:57:35.010Z,20.56
2022-10-22T15:01:36.755Z,20.26
2022-10-22T15:05:36.254Z,20.16
2022-10-22T15:09:35.842Z,20.24
2022-10-22T15:13:36.095Z,20.58
2022-10-22T15:17:37.707Z,20.54
2022-10-22T15:21:37.252Z,19.80
2022-10-22T15:25:36.913Z,19.51
2022-10-22T15:29:36.553Z,20.06
2022-10-22T15:33:38.179Z,20.05
2022-10-22T15:37:38.348Z,19.79
2022-10-22T15:41:38.278Z,19.82
2022-10-22T15:45:37.955Z,18.99
2022-10-22T15:49:41.418Z,18.67
2022-10-22T15:53:41.594Z,18.82
2022-10-22T15:57:41.603Z,18.70
2022-10-22T16:01:42.250Z,18.91
2022-10-22T16:05:51.307Z,18.64
2022-10-22T16:09:52.076Z,18.31
2022-10-22T16:13:56.370Z,17.89
2022-10-22T16:17:55.408Z,17.87
2022-10-22T16:21:59.049Z,18.22
2022-10-22T16:25:58.610Z,18.74
2022-10-22T16:29:58.285Z,19.07
2022-10-22T16:33:57.936Z,18.70
2022-10-22T16:38:00.072Z,18.39
2022-10-22T16:41:59.659Z,18.46
2022-10-22T16:45:59.171Z,18.43
2022-10-22T16:50:00.438Z,18.20
2022-10-22T16:54:02.923Z,18.69
2022-10-22T16:58:04.145Z,18.77
2022-10-22T17:06:05.086Z,18.75
2022-10-22T17:10:08.585Z,18.54
2022-10-22T17:14:08.359Z,18.33
2022-10-22T17:18:07.974Z,18.57
2022-10-22T17:22:07.727Z,18.58
2022-10-22T17:26:15.203Z,18.58
2022-10-22T17:30:17.260Z,18.57
2022-10-22T17:34:19.037Z,18.57
2022-10-22T17:38:18.287Z,18.67
2022-10-22T17:42:20.170Z,18.78
2022-10-22T17:46:22.254Z,18.77
2022-10-22T17:50:21.649Z,19.01
2022-10-22T17:54:21.228Z,19.00
2022-10-22T17:58:22.953Z,18.95
2022-10-22T18:02:22.589Z,18.81
2022-10-22T18:06:22.747Z,18.15
2022-10-22T18:10:22.261Z,18.15
2022-10-22T18:14:24.856Z,18.02
2022-10-22T18:18:24.622Z,18.13
2022-10-22T18:22:24.246Z,17.99
2022-10-22T18:26:26.701Z,18.03
2022-10-22T18:30:28.939Z,18.09
2022-10-22T18:34:29.991Z,17.76
2022-10-22T18:38:29.595Z,17.59
2022-10-22T18:42:33.712Z,17.42
2022-10-22T18:46:38.759Z,17.25
2022-10-22T18:50:38.375Z,17.34
2022-10-22T18:54:37.997Z,17.42
2022-10-22T18:58:39.769Z,17.28
2022-10-22T19:02:42.713Z,17.71
2022-10-22T19:06:45.728Z,17.89
2022-10-22T19:10:45.832Z,17.70
2022-10-22T19:14:45.443Z,17.23
2022-10-22T19:18:47.737Z,16.97
2022-10-22T19:22:47.332Z,16.67
2022-10-22T19:26:47.881Z,16.74
2022-10-22T19:30:47.523Z,16.99
2022-10-22T19:34:49.430Z,17.12
2022-10-22T19:38:50.657Z,17.26
2022-10-22T19:42:51.042Z,17.32
2022-10-22T19:46:51.006Z,16.80
2022-10-22T19:50:53.023Z,16.91
2022-10-22T19:54:52.705Z,16.56
2022-10-22T19:58:51.769Z,16.49
2022-10-22T20:02:51.367Z,16.78
2022-10-22T20:06:53.594Z,16.99
2022-10-22T20:10:53.126Z,16.81
2022-10-22T20:14:53.601Z,17.06
2022-10-22T20:18:53.693Z,17.19
2022-10-22T20:22:56.168Z,17.33
2022-10-22T20:26:55.812Z,16.72
2022-10-22T20:30:55.520Z,16.42
2022-10-22T20:34:55.431Z,16.37
2022-10-22T20:39:02.691Z,16.34
2022-10-22T20:43:02.508Z,16.29
2022-10-22T20:47:02.085Z,16.13
2022-10-22T20:51:04.211Z,15.76
2022-10-22T20:55:06.699Z,15.78
2022-10-22T20:59:08.008Z,15.56
2022-10-22T21:03:07.684Z,15.41
2022-10-22T21:07:07.337Z,15.22
2022-10-22T21:11:09.280Z,15.12
2022-10-22T21:15:12.473Z,15.61
2022-10-22T21:19:12.464Z,16.13
2022-10-22T21:23:12.214Z,16.40
2022-10-22T21:27:14.084Z,16.49
2022-10-22T21:31:20.138Z,15.96
2022-10-22T21:35:20.106Z,15.48
2022-10-22T21:39:19.731Z,15.30
2022-10-22T21:43:21.740Z,15.23
2022-10-22T21:47:21.344Z,15.16
2022-10-22T21:51:22.324Z,15.09
2022-10-22T21:55:21.413Z,15.51
2022-10-22T21:59:23.164Z,16.33
2022-10-22T22:03:23.042Z,16.65
2022-10-22T22:07:23.130Z,16.80
2022-10-22T22:11:25.348Z,16.82
2022-10-22T22:15:28.142Z,16.86
2022-10-22T22:19:27.693Z,16.41
2022-10-22T22:23:27.718Z,16.12
2022-10-22T22:27:27.271Z,16.11
2022-10-22T22:31:31.675Z,16.19
2022-10-22T22:35:31.547Z,16.11
2022-10-22T22:39:31.473Z,16.35
2022-10-22T22:43:31.050Z,16.14
2022-10-22T22:47:33.525Z,16.09
2022-10-22T22:51:32.713Z,15.96
2022-10-22T22:55:32.801Z,15.67
2022-10-22T22:59:31.961Z,15.21
2022-10-22T23:03:33.715Z,15.15
2022-10-22T23:07:33.385Z,15.02
2022-10-22T23:11:33.014Z,15.11
2022-10-22T23:15:32.689Z,14.89
2022-10-22T23:19:34.587Z,14.63
2022-10-22T23:23:34.638Z,14.80
2022-10-22T23:27:34.182Z,14.48
2022-10-22T23:31:34.086Z,14.08
2022-10-22T23:35:35.924Z,14.27
2022-10-22T23:39:35.606Z,14.15
2022-10-22T23:43:37.418Z,14.10
2022-10-22T23:47:37.499Z,14.29
2022-10-22T23:51:40.402Z,14.42
2022-10-22T23:55:42.957Z,14.48
2022-10-22T23:59:42.753Z,14.69
